createdAt,value
2022-08-27T00:00:44.977Z,97986.81
2022-08-27T00:03:19.418Z,97986.19
2022-08-27T00:05:52.859Z,97984.72
2022-08-27T00:19:03.126Z,97972.88
2022-08-27T00:21:43.419Z,97970.38
2022-08-27T00:24:17.437Z,97970.94
2022-08-27T00:26:51.481Z,97968.22
2022-08-27T00:29:25.487Z,97968.59
2022-08-27T00:31:59.478Z,97961.66
2022-08-27T00:34:35.081Z,97976.09
2022-08-27T00:47:30.379Z,97961.38
2022-08-27T00:50:21.639Z,97964.09
2022-08-27T00:53:01.994Z,97963.28
2022-08-27T00:55:55.441Z,97971.41
2022-08-27T00:58:33.620Z,97975.16
2022-08-27T01:14:56.419Z,97978.34
2022-08-27T01:17:31.057Z,97983.75
2022-08-27T01:20:11.420Z,97980.38
2022-08-27T01:22:58.902Z,97982.44
2022-08-27T01:25:41.453Z,97973.66
2022-08-27T01:39:15.399Z,97990.69
2022-08-27T01:41:52.442Z,97986.91
2022-08-27T01:44:32.460Z,97983.19
2022-08-27T01:47:06.069Z,97984.38
2022-08-27T01:49:40.579Z,97974.75
2022-08-27T01:52:17.379Z,97981.88
2022-08-27T01:54:59.640Z,97979.16
2022-08-27T02:08:13.419Z,97975.91
2022-08-27T02:10:49.799Z,97975.03
2022-08-27T02:13:30.440Z,97976.06
2022-08-27T02:16:04.393Z,97975.59
2022-08-27T02:18:38.419Z,97983.06
2022-08-27T02:32:37.438Z,97976.03
2022-08-27T02:35:13.419Z,97981.66
2022-08-27T02:37:51.437Z,97979.78
2022-08-27T02:40:26.885Z,97983.53
2022-08-27T02:43:00.425Z,97983.03
2022-08-27T02:45:35.534Z,97980.31
2022-08-27T03:01:51.517Z,97975.78
2022-08-27T03:04:25.940Z,97977.84
2022-08-27T03:06:59.437Z,97977.84
2022-08-27T03:09:33.985Z,97976.16
2022-08-27T03:12:08.458Z,97977.19
2022-08-27T03:14:42.025Z,97971.97
2022-08-27T03:27:32.362Z,97985.69
2022-08-27T03:30:29.442Z,97978.94
2022-08-27T03:33:03.102Z,97986.06
2022-08-27T03:35:37.442Z,97988.09
2022-08-27T03:38:11.210Z,97988.28
2022-08-27T03:40:45.423Z,97997.28
2022-08-27T03:53:57.492Z,97979.66
2022-08-27T03:56:30.924Z,97984.25
2022-08-27T03:59:06.690Z,97975.28
2022-08-27T04:01:40.958Z,97971.06
2022-08-27T04:04:14.510Z,97963.81
2022-08-27T04:06:47.983Z,97968.34
2022-08-27T04:09:24.462Z,97968.53
2022-08-27T04:19:44.362Z,97988.53
2022-08-27T04:22:25.423Z,97994.97
2022-08-27T04:25:01.223Z,97992.44
2022-08-27T04:27:35.462Z,97995.34
2022-08-27T04:30:09.895Z,97997.38
2022-08-27T04:32:43.524Z,97998.59
2022-08-27T04:35:17.199Z,97995.41
2022-08-27T04:48:07.440Z,98008.09
2022-08-27T04:50:48.462Z,98019.13
2022-08-27T04:53:23.324Z,98018.94
2022-08-27T04:56:00.423Z,98019.75
2022-08-27T04:58:34.082Z,98014.72
2022-08-27T05:14:21.422Z,98004.25
2022-08-27T05:16:54.883Z,98001.72
2022-08-27T05:19:28.425Z,98003.22
2022-08-27T05:22:02.402Z,97995.97
2022-08-27T05:24:36.402Z,97988.84
2022-08-27T05:27:10.171Z,97985.13
2022-08-27T05:29:55.382Z,97985.56
2022-08-27T05:40:00.471Z,97977.78
2022-08-27T05:42:40.470Z,97979.81
2022-08-27T05:45:16.103Z,97977.28
2022-08-27T05:47:49.423Z,97968.97
2022-08-27T05:50:23.777Z,97964.41
2022-08-27T05:52:57.425Z,97966.94
2022-08-27T05:55:36.983Z,97965.06
2022-08-27T06:08:34.383Z,97974.34
2022-08-27T06:11:14.422Z,97972.94
2022-08-27T06:13:48.823Z,97976.97
2022-08-27T06:16:24.402Z,97975.94
2022-08-27T06:18:58.212Z,97975.59
2022-08-27T06:35:14.543Z,97986.63
2022-08-27T06:37:48.282Z,97989.66
2022-08-27T06:40:22.550Z,97991.81
2022-08-27T06:42:56.243Z,97992.31
2022-08-27T06:45:30.484Z,97999.69
2022-08-27T06:48:05.122Z,97995.78
2022-08-27T06:50:47.580Z,98003.91
2022-08-27T07:00:32.399Z,97999.78
2022-08-27T07:03:15.625Z,98014.38
2022-08-27T07:05:52.686Z,98019.78
2022-08-27T07:08:36.118Z,98016.06
2022-08-27T07:11:13.655Z,98021.47
2022-08-27T07:13:56.507Z,98016.06
2022-08-27T07:27:08.423Z,98023.63
2022-08-27T07:29:41.963Z,98025.31
2022-08-27T07:32:15.451Z,98022.03
2022-08-27T07:34:48.942Z,98026.06
2022-08-27T07:37:22.454Z,98027.56
2022-08-27T07:39:58.252Z,98033.66
2022-08-27T07:56:15.444Z,98033.00
2022-08-27T07:58:49.662Z,98039.09
2022-08-27T08:01:24.494Z,98044.53
2022-08-27T08:03:57.949Z,98042.47
2022-08-27T08:06:32.422Z,98043.78
2022-08-27T08:09:08.062Z,98056.97
2022-08-27T08:22:13.382Z,98056.25
2022-08-27T08:24:53.463Z,98058.97
2022-08-27T08:27:27.284Z,98058.97
2022-08-27T08:30:01.429Z,98062.50
2022-08-27T08:32:35.350Z,98057.91
2022-08-27T08:35:10.443Z,98065.00
2022-08-27T08:48:28.425Z,98053.53
2022-08-27T08:51:12.282Z,98055.03
2022-08-27T08:54:00.402Z,98056.34
2022-08-27T08:56:52.969Z,98042.72
2022-08-27T08:59:41.423Z,98040.75
2022-08-27T09:16:20.007Z,98047.13
2022-08-27T09:19:01.422Z,98042.81
2022-08-27T09:21:51.483Z,98042.88
2022-08-27T09:24:47.442Z,98041.09
2022-08-27T09:27:22.304Z,98047.44
2022-08-27T09:30:00.463Z,98048.75
2022-08-27T09:43:28.477Z,98053.06
2022-08-27T09:46:21.377Z,98058.97
2022-08-27T09:49:02.424Z,98066.75
2022-08-27T09:51:42.443Z,98062.34
2022-08-27T09:54:46.442Z,98056.91
2022-08-27T10:08:06.682Z,98055.34
2022-08-27T10:10:53.724Z,98048.69
2022-08-27T10:13:46.605Z,98060.00
2022-08-27T10:16:48.367Z,98053.78
2022-08-27T10:19:52.467Z,98057.53
2022-08-27T10:36:46.403Z,98060.00
2022-08-27T10:39:54.616Z,98061.06
2022-08-27T10:42:38.682Z,98062.91
2022-08-27T10:45:31.579Z,98057.28
2022-08-27T10:48:21.562Z,98055.63
2022-08-27T10:51:16.441Z,98061.88
2022-08-27T11:01:23.422Z,98077.22
2022-08-27T11:04:11.401Z,98074.06
2022-08-27T11:06:55.125Z,98070.69
2022-08-27T11:09:45.443Z,98069.19
2022-08-27T11:12:27.302Z,98072.13
2022-08-27T11:15:18.310Z,98073.97
2022-08-27T11:28:41.442Z,98076.97
2022-08-27T11:31:25.213Z,98069.38
2022-08-27T11:34:16.437Z,98063.50
2022-08-27T11:37:25.864Z,98057.81
2022-08-27T11:40:40.455Z,98064.66
2022-08-27T11:54:35.441Z,98080.91
2022-08-27T11:57:27.927Z,98075.19
2022-08-27T12:00:25.462Z,98070.16
2022-08-27T12:03:02.266Z,98080.38
2022-08-27T12:05:49.454Z,98070.94
2022-08-27T12:08:32.504Z,98068.56
2022-08-27T12:21:49.402Z,98081.50
2022-08-27T12:24:56.462Z,98078.16
2022-08-27T12:27:33.983Z,98077.69
2022-08-27T12:30:37.442Z,98084.16
2022-08-27T12:33:27.672Z,98083.50
2022-08-27T12:36:18.614Z,98080.97
2022-08-27T12:50:02.504Z,98070.41
2022-08-27T12:53:07.922Z,98059.53
2022-08-27T12:56:08.490Z,98057.84
2022-08-27T12:59:02.602Z,98066.00
2022-08-27T13:15:26.442Z,98072.63
2022-08-27T13:18:03.093Z,98061.88
2022-08-27T13:20:53.424Z,98067.56
2022-08-27T13:23:28.245Z,98065.53
2022-08-27T13:26:09.442Z,98071.59
2022-08-27T13:28:44.646Z,98067.00
2022-08-27T13:31:22.515Z,98061.59
2022-08-27T20:05:17.065Z,98159.69
2022-08-27T20:07:53.212Z,98155.94
2022-08-27T20:10:36.049Z,98168.84
2022-08-27T20:13:10.057Z,98167.16
2022-08-27T20:15:44.453Z,98159.19
2022-08-27T20:18:21.235Z,98162.09
2022-08-27T20:20:56.395Z,98162.09
2022-08-27T20:34:06.393Z,98167.88
2022-08-27T20:36:43.169Z,98159.94
2022-08-27T20:39:23.419Z,98157.38
2022-08-27T20:41:56.826Z,98154.00
2022-08-27T20:44:30.432Z,98156.72
2022-08-27T21:01:08.451Z,98154.75
2022-08-27T21:03:48.468Z,98145.97
2022-08-27T21:06:26.607Z,98147.00
2022-08-27T21:09:02.158Z,98151.41
2022-08-27T21:11:35.934Z,98147.00
2022-08-27T21:14:09.475Z,98150.72
2022-08-27T21:27:23.437Z,98146.66
2022-08-27T21:29:57.675Z,98138.53
2022-08-27T21:32:31.436Z,98139.59
2022-08-27T21:35:06.534Z,98132.47
2022-08-27T21:37:41.474Z,98133.50
2022-08-27T21:40:15.235Z,98131.81
2022-08-27T21:53:05.434Z,98127.78
2022-08-27T21:55:45.453Z,98121.69
2022-08-27T21:58:22.321Z,98122.72
2022-08-27T22:01:07.583Z,98113.94
2022-08-27T22:03:44.153Z,98119.72
2022-08-27T22:20:13.418Z,98128.78
2022-08-27T22:22:46.997Z,98129.59
2022-08-27T22:25:21.489Z,98129.59
2022-08-27T22:27:55.438Z,98132.31
2022-08-27T22:30:30.457Z,98131.66
2022-08-27T22:33:04.278Z,98125.19
2022-08-27T22:35:40.478Z,98127.06
2022-08-27T22:48:50.480Z,98115.41
2022-08-27T22:51:19.658Z,98119.97
2022-08-27T22:54:00.457Z,98123.69
2022-08-27T22:56:34.137Z,98120.97
2022-08-27T22:59:08.479Z,98124.91
2022-08-27T23:13:03.439Z,98121.81
2022-08-27T23:15:39.900Z,98117.41
2022-08-27T23:18:22.998Z,98118.41
2022-08-27T23:20:57.018Z,98119.63
2022-08-27T23:23:31.478Z,98118.78
2022-08-27T23:26:05.838Z,98123.34
2022-08-27T23:42:22.459Z,98114.25
2022-08-27T23:44:55.962Z,98120.69
2022-08-27T23:50:00.106Z,98115.47
2022-08-27T23:52:27.278Z,98118.38
2022-08-27T23:55:07.538Z,98119.34
